Time;durP1;ratioP1;P1;durP2;ratioP2;P2;SDS_P1;SDS_P2;PMS_P1;PMS_P2;Temp;Humidity;BMP_temperature;BMP_pressure;BME280_temperature;BME280_humidity;BME280_pressure;Samples;Min_cycle;Max_cycle;Signal;HPM_P1;HPM_P2
2023/02/01 00:00:45;;;;;;;3.55;3.25;;;25.50;59.30;;;;;;4973774;28;20225;-54
2023/02/01 00:03:15;;;;;;;3.50;3.08;;;25.60;59.30;;;;;;4974850;28;20205;-52
2023/02/01 00:05:56;;;;;;;5.40;3.55;;;25.60;59.30;;;;;;4974204;28;20570;-52
2023/02/01 00:08:27;;;;;;;4.30;3.28;;;25.60;59.20;;;;;;4973449;28;20224;-54
2023/02/01 00:11:08;;;;;;;3.72;3.40;;;25.60;59.20;;;;;;4974179;28;20250;-51
2023/02/01 00:13:40;;;;;;;4.35;3.13;;;25.60;59.10;;;;;;4985901;28;20460;-53
2023/02/01 00:16:15;;;;;;;3.95;3.25;;;25.70;59.20;;;;;;4976040;28;20234;-51
2023/02/01 00:18:47;;;;;;;3.50;3.17;;;25.70;59.20;;;;;;4973521;28;20209;-52
2023/02/01 00:21:21;;;;;;;4.90;3.70;;;25.70;59.10;;;;;;4972633;28;20562;-54
2023/02/01 00:23:52;;;;;;;3.15;2.85;;;25.70;59.00;;;;;;4973887;28;20201;-49
2023/02/01 00:26:26;;;;;;;3.95;3.15;;;25.70;59.00;;;;;;4974099;28;20205;-52
2023/02/01 00:28:56;;;;;;;3.33;3.03;;;25.70;58.90;;;;;;4986551;28;20213;-53
2023/02/01 00:31:27;;;;;;;3.22;2.80;;;25.80;59.00;;;;;;4992872;28;20193;-50
2023/02/01 00:33:58;;;;;;;3.30;3.00;;;25.80;58.90;;;;;;4992262;28;20595;-52
2023/02/01 00:36:31;;;;;;;3.38;3.08;;;25.80;58.90;;;;;;4992882;28;20225;-56
2023/02/01 00:39:01;;;;;;;3.20;2.90;;;25.80;58.90;;;;;;4978490;28;20277;-51
2023/02/01 00:41:32;;;;;;;3.70;3.13;;;25.80;58.90;;;;;;4973396;28;20194;-54
2023/02/01 00:44:03;;;;;;;4.72;3.30;;;25.80;58.90;;;;;;4972668;28;20557;-55
2023/02/01 00:46:33;;;;;;;4.40;3.33;;;25.80;58.90;;;;;;4973418;28;20206;-55
2023/02/01 00:49:05;;;;;;;4.82;3.33;;;25.80;58.90;;;;;;4973877;28;20218;-55
2023/02/01 00:51:37;;;;;;;3.35;3.03;;;25.80;58.90;;;;;;4973088;28;20203;-56
2023/02/01 00:54:08;;;;;;;3.05;2.65;;;25.80;58.90;;;;;;4973648;28;20202;-52
2023/02/01 00:56:39;;;;;;;4.35;3.03;;;25.80;58.90;;;;;;4973088;28;20241;-55
2023/02/01 00:59:13;;;;;;;4.47;3.25;;;25.80;58.90;;;;;;4973043;28;20225;-53
2023/02/01 01:01:43;;;;;;;5.07;2.80;;;25.80;58.90;;;;;;4973109;28;20194;-54
2023/02/01 01:04:14;;;;;;;4.72;3.20;;;25.80;59.10;;;;;;4972143;28;20198;-56
2023/02/01 01:06:46;;;;;;;5.55;3.15;;;25.80;58.90;;;;;;4973155;28;20202;-55
2023/02/01 01:09:17;;;;;;;6.00;3.47;;;25.90;59.00;;;;;;4972063;28;20721;-56
2023/02/01 01:11:48;;;;;;;5.90;3.08;;;25.90;58.90;;;;;;4972544;28;20576;-56
2023/02/01 01:14:18;;;;;;;5.38;2.92;;;25.90;58.90;;;;;;4972814;28;21347;-55
2023/02/01 01:16:50;;;;;;;7.68;3.45;;;25.90;59.00;;;;;;4973508;28;20229;-52
2023/02/01 01:19:21;;;;;;;6.82;3.83;;;25.90;59.00;;;;;;4972249;28;20214;-56
2023/02/01 01:21:53;;;;;;;6.03;3.45;;;25.90;59.10;;;;;;4973274;28;20202;-54
2023/02/01 01:24:24;;;;;;;5.03;3.50;;;25.90;59.10;;;;;;4972443;28;20202;-56
2023/02/01 01:26:55;;;;;;;7.20;3.20;;;25.90;59.20;;;;;;4973333;28;20198;-56
2023/02/01 01:29:25;;;;;;;8.48;3.40;;;25.90;59.20;;;;;;4973055;28;20218;-55
2023/02/01 01:31:56;;;;;;;5.88;3.40;;;25.90;59.20;;;;;;4973415;28;20194;-55
2023/02/01 01:34:27;;;;;;;5.05;3.45;;;25.90;59.20;;;;;;4972881;28;20201;-56
2023/02/01 01:36:59;;;;;;;6.38;3.30;;;25.90;59.10;;;;;;4971909;28;20222;-55
2023/02/01 01:39:30;;;;;;;6.93;3.75;;;25.90;59.10;;;;;;4972251;28;20218;-56
2023/02/01 01:42:01;;;;;;;8.40;3.60;;;26.00;59.20;;;;;;4971807;28;20198;-51
2023/02/01 01:45:03;;;;;;;8.90;3.65;;;26.00;59.20;;;;;;4972786;28;20206;-54
2023/02/01 01:47:38;;;;;;;8.65;3.53;;;26.00;59.20;;;;;;4971269;28;20250;-54
2023/02/01 01:50:12;;;;;;;8.68;3.92;;;26.00;59.30;;;;;;4953392;28;20205;-55
2023/02/01 01:52:46;;;;;;;10.88;4.03;;;26.00;59.30;;;;;;4952932;28;20663;-53
2023/02/01 01:55:19;;;;;;;9.00;3.30;;;26.00;59.40;;;;;;4952596;28;20194;-55
2023/02/01 01:57:55;;;;;;;13.60;4.50;;;26.00;59.30;;;;;;4953608;28;20571;-54
2023/02/01 02:00:26;;;;;;;8.15;3.60;;;26.00;59.40;;;;;;4973187;28;20203;-54
2023/02/01 02:03:03;;;;;;;8.30;3.70;;;26.00;59.40;;;;;;4972697;28;20198;-54
2023/02/01 02:05:34;;;;;;;9.88;4.32;;;26.00;59.50;;;;;;4972868;28;20201;-54
2023/02/01 02:08:07;;;;;;;9.20;4.07;;;26.00;59.50;;;;;;4971899;28;20222;-52
2023/02/01 02:13:26;;;;;;;8.18;3.90;;;26.00;59.70;;;;;;4971922;28;20673;-55
2023/02/01 02:16:06;;;;;;;6.28;3.50;;;26.00;59.70;;;;;;4971297;28;20229;-52
2023/02/01 02:18:47;;;;;;;9.75;3.80;;;26.10;59.60;;;;;;4971184;28;20588;-55
2023/02/01 02:21:26;;;;;;;8.52;3.53;;;26.10;59.60;;;;;;4972253;28;20217;-52
2023/02/01 02:24:21;;;;;;;9.20;3.92;;;26.10;59.60;;;;;;4971517;28;20605;-53
2023/02/01 02:27:24;;;;;;;10.15;3.90;;;26.10;59.70;;;;;;4971824;28;20209;-53
2023/02/01 02:30:23;;;;;;;8.90;3.78;;;26.20;59.70;;;;;;4972140;28;20284;-53
2023/02/01 02:33:37;;;;;;;9.93;3.53;;;26.20;59.70;;;;;;4971616;28;20277;-54
2023/02/01 02:36:13;;;;;;;8.25;3.90;;;26.10;59.60;;;;;;4965023;28;20222;-55
2023/02/01 02:38:49;;;;;;;10.57;4.03;;;26.20;59.70;;;;;;4971751;28;20268;-53
2023/02/01 02:47:28;;;;;;;9.90;4.70;;;26.20;59.80;;;;;;4971881;28;20539;-50
2023/02/01 03:04:17;;;;;;;12.27;4.25;;;26.30;60.80;;;;;;4971112;28;20213;-54
2023/02/01 03:06:50;;;;;;;10.60;4.28;;;26.40;61.10;;;;;;4952432;28;20206;-55
2023/02/01 03:09:25;;;;;;;8.80;3.35;;;26.40;61.00;;;;;;4968891;28;20221;-55
2023/02/01 03:14:48;;;;;;;9.20;3.55;;;26.40;60.60;;;;;;4940859;28;20203;-55
2023/02/01 03:17:24;;;;;;;8.48;3.70;;;26.50;60.60;;;;;;4971859;28;20590;-54
2023/02/01 03:19:56;;;;;;;7.63;3.72;;;26.50;60.50;;;;;;4971627;28;20198;-54
2023/02/01 03:22:33;;;;;;;11.10;3.90;;;26.50;60.40;;;;;;4971810;28;20198;-56
2023/02/01 03:25:08;;;;;;;11.65;4.38;;;26.50;60.40;;;;;;4970436;28;20201;-54
2023/02/01 03:27:43;;;;;;;8.77;3.95;;;26.50;60.50;;;;;;4971812;28;20210;-55
2023/02/01 03:30:18;;;;;;;12.38;3.95;;;26.50;60.50;;;;;;4971528;28;20206;-52
2023/02/01 03:33:01;;;;;;;8.73;4.13;;;26.60;60.40;;;;;;4974684;28;20754;-56
2023/02/01 03:35:35;;;;;;;7.90;4.03;;;26.60;60.40;;;;;;4954761;28;20206;-56
2023/02/01 03:38:16;;;;;;;9.02;3.70;;;26.60;60.30;;;;;;4962289;28;20233;-53
2023/02/01 03:40:51;;;;;;;9.73;3.83;;;26.60;60.20;;;;;;4974881;28;20194;-57
2023/02/01 03:43:23;;;;;;;8.40;3.65;;;26.60;60.10;;;;;;4978003;28;20197;-53
2023/02/01 03:45:59;;;;;;;8.45;3.60;;;26.70;60.00;;;;;;4994350;28;20204;-56
2023/02/01 03:48:31;;;;;;;9.30;3.38;;;26.60;60.00;;;;;;4993483;28;20205;-56
2023/02/01 03:51:06;;;;;;;8.57;4.00;;;26.60;59.90;;;;;;4994462;28;20220;-54
2023/02/01 03:53:42;;;;;;;8.85;3.50;;;26.60;59.90;;;;;;4993041;28;20200;-55
2023/02/01 03:56:13;;;;;;;5.78;3.08;;;26.60;59.80;;;;;;4983232;28;20681;-56
2023/02/01 03:58:58;;;;;;;9.02;3.83;;;26.70;59.80;;;;;;4974380;28;20325;-55
2023/02/01 04:01:30;;;;;;;12.02;4.15;;;26.70;59.80;;;;;;4973929;28;20635;-55
2023/02/01 04:04:01;;;;;;;9.82;3.88;;;26.70;59.80;;;;;;4974088;28;20202;-55
2023/02/01 04:06:32;;;;;;;13.18;3.90;;;26.70;59.80;;;;;;4973575;28;20205;-55
2023/02/01 04:09:07;;;;;;;11.55;4.20;;;26.70;59.90;;;;;;4973726;28;20224;-56
2023/02/01 04:11:38;;;;;;;11.82;4.25;;;26.70;59.80;;;;;;4974293;28;20205;-55
2023/02/01 04:14:08;;;;;;;13.60;3.78;;;26.70;59.80;;;;;;4974480;28;20190;-55
2023/02/01 04:16:39;;;;;;;14.35;4.07;;;26.70;59.80;;;;;;4974276;28;20222;-55
2023/02/01 04:19:10;;;;;;;8.18;3.83;;;26.70;59.80;;;;;;4974163;28;20214;-56
2023/02/01 04:21:41;;;;;;;11.93;4.38;;;26.80;59.90;;;;;;4973969;28;20197;-56
2023/02/01 04:24:14;;;;;;;11.20;4.45;;;26.80;59.80;;;;;;4972894;28;20201;-54
2023/02/01 04:26:44;;;;;;;11.63;4.57;;;26.80;59.80;;;;;;4973768;28;20651;-55
2023/02/01 04:29:15;;;;;;;13.55;4.70;;;26.80;59.80;;;;;;4973367;28;20692;-55
2023/02/01 04:31:46;;;;;;;9.88;3.45;;;26.80;59.70;;;;;;4973186;28;20202;-53
2023/02/01 04:34:17;;;;;;;12.15;4.43;;;26.90;59.70;;;;;;4973502;28;20190;-54
2023/02/01 04:36:47;;;;;;;12.15;4.57;;;26.90;59.70;;;;;;4973305;28;20226;-55
2023/02/01 04:39:20;;;;;;;9.07;3.78;;;26.90;59.60;;;;;;4973170;28;20226;-54
2023/02/01 04:41:51;;;;;;;10.88;3.80;;;26.90;59.60;;;;;;4974210;28;20194;-55
2023/02/01 04:44:22;;;;;;;11.55;4.30;;;26.90;59.50;;;;;;4973415;28;20199;-55
2023/02/01 04:46:53;;;;;;;10.25;3.67;;;27.00;59.60;;;;;;4973474;28;20202;-50
2023/02/01 04:49:25;;;;;;;11.57;4.03;;;27.00;59.50;;;;;;4972655;28;20217;-48
2023/02/01 04:51:55;;;;;;;13.70;4.65;;;27.00;59.40;;;;;;4972924;28;20208;-52
2023/02/01 04:54:28;;;;;;;11.52;4.00;;;27.00;59.40;;;;;;4972593;28;20560;-52
2023/02/01 04:56:59;;;;;;;10.73;3.90;;;27.00;59.30;;;;;;4973161;28;20226;-52
2023/02/01 04:59:30;;;;;;;10.73;3.45;;;27.10;59.20;;;;;;4972713;28;20218;-52
2023/02/01 05:02:00;;;;;;;13.05;4.20;;;27.10;59.10;;;;;;4972949;28;20236;-53
2023/02/01 05:04:31;;;;;;;9.20;3.72;;;27.10;59.10;;;;;;4973338;28;20198;-48
2023/02/01 05:07:02;;;;;;;8.70;3.33;;;27.20;59.10;;;;;;4967563;28;20684;-51
2023/02/01 05:09:34;;;;;;;9.60;3.88;;;27.20;59.10;;;;;;4974537;28;20695;-49
2023/02/01 05:14:51;;;;;;;9.48;3.80;;;27.20;58.90;;;;;;4973222;28;20261;-49
2023/02/01 05:17:22;;;;;;;9.82;3.75;;;27.20;58.70;;;;;;4973144;28;20255;-48
2023/02/01 05:19:53;;;;;;;9.02;3.53;;;27.30;58.60;;;;;;4973414;28;20202;-48
2023/02/01 05:22:23;;;;;;;8.18;3.42;;;27.30;58.70;;;;;;4973443;28;20205;-49
2023/02/01 05:24:56;;;;;;;10.10;3.72;;;27.30;58.70;;;;;;4973523;28;20210;-50
2023/02/01 05:27:27;;;;;;;6.63;3.40;;;27.30;58.60;;;;;;4973118;28;20281;-51
2023/02/01 05:29:57;;;;;;;8.05;3.28;;;27.30;58.50;;;;;;4972752;28;20209;-49
2023/02/01 05:32:28;;;;;;;7.05;3.15;;;27.40;58.50;;;;;;4973042;28;20202;-51
2023/02/01 05:34:59;;;;;;;6.43;3.10;;;27.40;58.40;;;;;;4972982;28;20207;-49
2023/02/01 05:37:29;;;;;;;6.65;3.28;;;27.40;58.40;;;;;;4972803;28;20697;-50
2023/02/01 05:40:02;;;;;;;7.28;3.22;;;27.40;58.20;;;;;;4972436;28;20210;-47
2023/02/01 05:42:33;;;;;;;9.57;3.40;;;27.50;58.20;;;;;;4972755;28;20282;-49
2023/02/01 05:45:04;;;;;;;7.47;3.38;;;27.50;58.20;;;;;;4972714;28;20202;-50
2023/02/01 05:47:35;;;;;;;9.15;3.55;;;27.50;58.10;;;;;;4972768;28;20201;-50
2023/02/01 05:50:07;;;;;;;8.50;3.47;;;27.50;58.10;;;;;;4973143;28;20205;-52
2023/02/01 05:52:38;;;;;;;6.70;3.28;;;27.50;58.10;;;;;;4972961;28;20214;-50
2023/02/01 05:55:11;;;;;;;7.95;3.13;;;27.60;58.10;;;;;;4971972;28;20195;-49
2023/02/01 05:57:41;;;;;;;8.35;3.47;;;27.50;58.10;;;;;;4972709;28;20233;-49
2023/02/01 06:00:13;;;;;;;10.38;3.58;;;27.60;58.10;;;;;;4973282;28;20206;-49
2023/02/01 06:02:44;;;;;;;5.50;2.90;;;27.60;58.20;;;;;;4972409;28;20205;-51
2023/02/01 06:05:14;;;;;;;7.63;3.30;;;27.60;58.10;;;;;;4972676;28;20202;-49
2023/02/01 06:07:45;;;;;;;7.28;2.95;;;27.60;58.00;;;;;;4972336;28;20622;-49
2023/02/01 06:10:18;;;;;;;4.68;2.90;;;27.60;58.00;;;;;;4972538;28;20212;-48
2023/02/01 06:12:49;;;;;;;7.40;3.10;;;27.60;58.00;;;;;;4972543;28;20202;-51
2023/02/01 06:15:20;;;;;;;5.15;2.85;;;27.60;57.80;;;;;;4972196;28;20209;-51
2023/02/01 06:17:50;;;;;;;6.40;2.88;;;27.60;57.90;;;;;;4972661;28;20262;-50
2023/02/01 06:20:21;;;;;;;6.22;2.83;;;27.60;57.70;;;;;;4972673;28;20213;-50
2023/02/01 06:22:52;;;;;;;6.35;2.85;;;27.60;57.90;;;;;;4972653;28;20206;-48
2023/02/01 06:25:25;;;;;;;7.68;2.80;;;27.60;57.90;;;;;;4972922;28;20205;-49
2023/02/01 06:27:55;;;;;;;5.53;2.88;;;27.60;57.90;;;;;;4972113;28;20675;-51
2023/02/01 06:30:26;;;;;;;9.65;3.42;;;27.60;57.90;;;;;;4972426;28;20569;-53
2023/02/01 06:32:57;;;;;;;6.95;3.00;;;27.60;57.90;;;;;;4972900;28;20206;-53
2023/02/01 06:35:27;;;;;;;7.78;3.15;;;27.60;57.80;;;;;;4972540;28;20665;-50
2023/02/01 06:37:58;;;;;;;5.93;3.42;;;27.60;57.70;;;;;;4972333;28;20237;-49
2023/02/01 06:40:31;;;;;;;7.13;3.30;;;27.60;57.70;;;;;;4972248;28;20202;-50
2023/02/01 06:43:01;;;;;;;5.03;2.83;;;27.60;57.70;;;;;;4972588;28;20194;-53
2023/02/01 06:45:32;;;;;;;8.82;3.40;;;27.60;57.60;;;;;;4972347;28;20206;-48
2023/02/01 06:48:03;;;;;;;5.60;2.65;;;27.60;57.70;;;;;;4972516;28;20229;-50
2023/02/01 06:50:34;;;;;;;5.72;2.90;;;27.60;57.70;;;;;;4972579;28;20205;-50
2023/02/01 06:53:05;;;;;;;6.25;3.05;;;27.60;57.80;;;;;;4972274;28;20210;-52
2023/02/01 06:55:38;;;;;;;6.38;3.03;;;27.60;57.80;;;;;;4972035;28;20570;-51
2023/02/01 06:58:08;;;;;;;5.18;3.03;;;27.60;57.80;;;;;;4971972;28;20226;-49
2023/02/01 07:00:39;;;;;;;6.38;2.97;;;27.60;57.70;;;;;;4972685;28;20198;-49
2023/02/01 07:03:10;;;;;;;7.45;3.10;;;27.60;57.70;;;;;;4971778;28;20198;-51
2023/02/01 07:05:40;;;;;;;8.35;3.58;;;27.60;57.70;;;;;;4971961;28;20207;-49
2023/02/01 07:08:11;;;;;;;4.57;2.80;;;27.60;57.70;;;;;;4975778;28;20225;-51
2023/02/01 07:10:44;;;;;;;5.72;2.95;;;27.60;57.60;;;;;;4975954;28;20209;-49
2023/02/01 07:13:14;;;;;;;7.18;3.03;;;27.60;57.50;;;;;;4975606;28;20198;-49
2023/02/01 07:15:46;;;;;;;5.45;2.63;;;27.60;57.40;;;;;;4975334;28;20202;-52
2023/02/01 07:18:17;;;;;;;4.80;2.90;;;27.60;57.40;;;;;;4975008;28;20248;-49
2023/02/01 07:20:53;;;;;;;5.45;2.72;;;27.60;57.40;;;;;;4975301;28;20205;-51
2023/02/01 07:23:24;;;;;;;5.13;2.85;;;27.60;57.40;;;;;;4975677;28;20662;-51
2023/02/01 07:26:00;;;;;;;6.35;3.15;;;27.60;57.30;;;;;;4975679;28;20583;-51
2023/02/01 07:28:33;;;;;;;6.85;3.13;;;27.50;57.30;;;;;;4975308;28;20222;-52
2023/02/01 07:31:07;;;;;;;6.32;2.97;;;27.50;57.40;;;;;;4975570;28;20654;-53
2023/02/01 07:33:38;;;;;;;5.63;2.80;;;27.50;57.30;;;;;;4975511;28;20206;-52
2023/02/01 07:36:10;;;;;;;6.60;2.92;;;27.50;57.40;;;;;;4975095;28;20194;-50
2023/02/01 07:38:40;;;;;;;6.18;2.80;;;27.50;57.40;;;;;;4975191;28;20242;-54
2023/02/01 07:41:13;;;;;;;5.07;2.60;;;27.50;57.40;;;;;;4975313;28;20205;-53
2023/02/01 07:43:44;;;;;;;5.88;3.03;;;27.50;57.30;;;;;;4974744;28;20201;-52
2023/02/01 07:46:15;;;;;;;5.57;2.60;;;27.50;57.30;;;;;;4974518;28;20210;-51
2023/02/01 07:48:45;;;;;;;4.28;2.70;;;27.50;57.30;;;;;;4974844;28;20316;-51
2023/02/01 07:51:17;;;;;;;4.43;2.85;;;27.50;57.20;;;;;;4974841;28;20201;-51
2023/02/01 07:53:48;;;;;;;5.43;2.58;;;27.50;57.20;;;;;;4974756;28;20220;-51
2023/02/01 07:56:24;;;;;;;5.93;2.75;;;27.40;57.10;;;;;;4974317;28;20210;-51
2023/02/01 07:58:56;;;;;;;5.47;2.80;;;27.40;57.10;;;;;;4974788;28;20238;-54
2023/02/01 08:01:28;;;;;;;8.70;3.40;;;27.40;57.00;;;;;;4975017;28;20198;-55
2023/02/01 08:04:00;;;;;;;6.70;3.00;;;27.40;57.00;;;;;;4974818;28;20569;-53
2023/02/01 08:06:33;;;;;;;8.13;3.60;;;27.40;57.10;;;;;;4974544;28;20628;-54
2023/02/01 08:09:05;;;;;;;6.00;2.95;;;27.40;57.10;;;;;;4974467;28;20729;-54
2023/02/01 08:11:38;;;;;;;6.28;3.17;;;27.40;57.10;;;;;;4974838;28;20206;-54
2023/02/01 08:14:09;;;;;;;7.32;3.17;;;27.40;57.10;;;;;;4974140;28;20234;-49
2023/02/01 08:16:39;;;;;;;5.30;2.67;;;27.40;57.20;;;;;;4973769;28;20198;-54
2023/02/01 08:19:10;;;;;;;5.30;3.03;;;27.30;57.10;;;;;;4974350;28;20253;-54
2023/02/01 08:21:41;;;;;;;6.47;2.80;;;27.40;57.20;;;;;;4974049;28;20202;-51
2023/02/01 08:24:13;;;;;;;6.63;3.55;;;27.30;57.10;;;;;;4974876;28;20194;-53
2023/02/01 08:26:46;;;;;;;6.35;3.30;;;27.30;57.10;;;;;;4974972;28;20198;-52
2023/02/01 08:29:16;;;;;;;6.70;2.97;;;27.30;57.10;;;;;;4972968;28;20604;-51
2023/02/01 08:31:47;;;;;;;7.53;3.35;;;27.30;57.10;;;;;;4975520;28;20194;-54
2023/02/01 08:34:18;;;;;;;5.32;2.78;;;27.30;57.00;;;;;;4973600;28;20198;-54
2023/02/01 08:36:48;;;;;;;7.20;3.17;;;27.30;57.00;;;;;;4965601;28;20202;-56
2023/02/01 08:39:19;;;;;;;6.43;3.05;;;27.30;57.00;;;;;;4973807;28;20238;-54
2023/02/01 08:44:35;;;;;;;6.13;2.83;;;27.20;56.90;;;;;;4955884;28;20682;-53
2023/02/01 08:47:06;;;;;;;6.57;2.88;;;27.20;56.80;;;;;;4973378;28;20194;-52
2023/02/01 08:49:36;;;;;;;9.48;3.50;;;27.20;56.80;;;;;;4973352;28;20222;-53
2023/02/01 08:52:07;;;;;;;6.85;3.17;;;27.20;56.80;;;;;;4973629;28;20221;-53
2023/02/01 08:54:39;;;;;;;5.40;2.80;;;27.10;56.80;;;;;;4973892;28;20205;-54
2023/02/01 08:57:11;;;;;;;4.60;2.78;;;27.20;56.80;;;;;;4973893;28;20665;-53
2023/02/01 08:59:43;;;;;;;5.43;3.15;;;27.20;56.90;;;;;;4973597;28;20238;-53
2023/02/01 09:02:16;;;;;;;6.43;2.65;;;27.10;56.70;;;;;;4972734;28;20257;-53
2023/02/01 09:04:47;;;;;;;4.75;2.85;;;27.10;56.80;;;;;;4973397;28;20201;-51
2023/02/01 09:07:18;;;;;;;5.55;3.03;;;27.10;56.80;;;;;;4973166;28;20206;-54
2023/02/01 09:09:49;;;;;;;4.95;2.65;;;27.10;56.80;;;;;;4973125;28;20591;-53
2023/02/01 09:12:21;;;;;;;5.00;2.75;;;27.10;56.70;;;;;;4972918;28;20199;-52
2023/02/01 09:14:52;;;;;;;6.95;3.05;;;27.10;56.70;;;;;;4972135;28;20194;-55
2023/02/01 09:17:23;;;;;;;5.40;2.60;;;27.00;56.60;;;;;;4973458;28;20206;-56
2023/02/01 09:19:53;;;;;;;6.75;3.28;;;27.10;56.60;;;;;;4972274;28;20225;-53
2023/02/01 09:22:24;;;;;;;5.82;3.33;;;27.00;56.60;;;;;;4972673;28;20198;-56
2023/02/01 09:24:56;;;;;;;5.53;2.97;;;27.00;56.60;;;;;;4972829;28;20201;-56
2023/02/01 09:27:28;;;;;;;5.93;2.97;;;27.00;56.60;;;;;;4973129;28;20430;-53
2023/02/01 09:29:59;;;;;;;6.60;3.08;;;27.00;56.60;;;;;;4971575;28;20202;-52
2023/02/01 09:32:30;;;;;;;7.90;3.50;;;27.00;56.60;;;;;;4972982;28;20194;-54
2023/02/01 09:35:00;;;;;;;6.55;3.22;;;27.00;56.60;;;;;;4971554;28;20194;-54
2023/02/01 09:37:31;;;;;;;5.65;2.58;;;26.90;56.60;;;;;;4972141;28;20577;-54
2023/02/01 09:40:02;;;;;;;6.35;3.03;;;27.00;56.60;;;;;;4972740;28;20225;-51
2023/02/01 09:43:18;;;;;;;6.22;3.03;;;26.90;56.60;;;;;;4972391;28;20543;-54
2023/02/01 09:45:58;;;;;;;5.45;2.90;;;26.90;56.60;;;;;;4969899;28;20203;-54
2023/02/01 09:48:34;;;;;;;5.70;2.70;;;26.90;56.60;;;;;;4970305;28;20732;-51
2023/02/01 09:51:13;;;;;;;5.85;2.70;;;26.90;56.60;;;;;;4972113;28;20291;-52
2023/02/01 09:53:46;;;;;;;6.70;3.25;;;26.90;56.50;;;;;;4952798;28;20207;-52
2023/02/01 09:56:21;;;;;;;8.27;3.58;;;26.80;56.50;;;;;;4969889;28;20198;-56
2023/02/01 09:58:58;;;;;;;5.68;3.08;;;26.80;56.50;;;;;;4972358;28;20244;-54
2023/02/01 10:01:31;;;;;;;5.53;3.08;;;26.80;56.50;;;;;;4978066;28;20198;-55
2023/02/01 10:04:05;;;;;;;5.35;3.05;;;26.80;57.10;;;;;;4972169;28;20261;-50
2023/02/01 10:06:47;;;;;;;4.95;2.67;;;26.80;56.50;;;;;;4971947;28;20244;-51
2023/02/01 10:09:34;;;;;;;5.00;2.70;;;26.70;56.40;;;;;;4969359;28;20225;-54
2023/02/01 10:12:31;;;;;;;5.43;2.80;;;26.70;56.50;;;;;;4972431;28;20206;-53
2023/02/01 10:15:16;;;;;;;5.20;2.53;;;26.70;56.50;;;;;;4971842;28;20190;-54
2023/02/01 10:18:02;;;;;;;7.07;2.90;;;26.70;56.50;;;;;;4971062;28;20461;-55
2023/02/01 10:20:39;;;;;;;5.55;2.28;;;26.70;56.50;;;;;;4972150;28;20194;-55
2023/02/01 10:23:23;;;;;;;5.30;2.65;;;26.70;56.60;;;;;;4971530;28;20198;-49
2023/02/01 10:25:57;;;;;;;6.15;3.22;;;26.60;56.50;;;;;;4972357;28;20194;-50
2023/02/01 10:28:28;;;;;;;4.43;2.67;;;26.60;56.50;;;;;;4972679;28;20217;-49
2023/02/01 10:31:03;;;;;;;4.47;2.53;;;26.60;56.50;;;;;;4972386;28;20202;-53
2023/02/01 10:33:38;;;;;;;4.47;2.45;;;26.60;56.60;;;;;;4972431;28;20207;-54
2023/02/01 10:36:19;;;;;;;5.20;2.50;;;26.60;56.60;;;;;;4972765;28;20224;-51
2023/02/01 10:38:50;;;;;;;5.05;2.22;;;26.60;56.60;;;;;;4972446;28;20234;-54
2023/02/01 10:41:23;;;;;;;5.07;2.70;;;26.50;56.50;;;;;;4975531;28;20198;-53
2023/02/01 10:43:57;;;;;;;4.40;2.60;;;26.50;56.50;;;;;;4976188;28;20198;-51
2023/02/01 10:46:30;;;;;;;4.65;2.10;;;26.50;56.50;;;;;;4976656;28;20201;-53
2023/02/01 10:49:03;;;;;;;5.57;2.40;;;26.50;57.10;;;;;;4980950;28;20229;-50
2023/02/01 10:51:45;;;;;;;4.97;2.50;;;26.50;56.50;;;;;;4982954;28;20190;-53
2023/02/01 10:54:20;;;;;;;3.53;2.35;;;26.40;56.50;;;;;;4983332;28;20493;-53
2023/02/01 10:56:53;;;;;;;4.15;2.33;;;26.50;56.60;;;;;;4984915;28;20199;-49
2023/02/01 10:59:26;;;;;;;4.38;2.50;;;26.50;56.60;;;;;;4995848;28;20229;-50
2023/02/01 11:02:07;;;;;;;5.38;2.67;;;26.50;56.60;;;;;;4995500;28;20688;-50
2023/02/01 11:04:38;;;;;;;5.70;2.88;;;26.40;56.60;;;;;;4995199;28;20193;-52
2023/02/01 11:07:16;;;;;;;4.03;2.53;;;26.40;56.60;;;;;;4994816;28;20205;-50
2023/02/01 11:09:54;;;;;;;3.78;2.45;;;26.40;56.60;;;;;;4956225;28;20205;-52
2023/02/01 11:12:30;;;;;;;4.03;2.40;;;26.40;56.60;;;;;;4955938;28;20195;-51
2023/02/01 11:15:15;;;;;;;3.55;2.47;;;26.40;56.60;;;;;;4956165;28;20605;-51
2023/02/01 11:17:51;;;;;;;3.83;2.75;;;26.40;56.60;;;;;;4956313;28;20218;-53
2023/02/01 11:20:37;;;;;;;3.08;2.17;;;26.40;56.60;;;;;;4956338;28;20774;-48
2023/02/01 11:23:07;;;;;;;4.40;2.40;;;26.40;56.60;;;;;;4956263;28;20195;-52
2023/02/01 11:25:39;;;;;;;4.93;2.20;;;26.30;56.50;;;;;;4956558;28;20574;-51
2023/02/01 11:28:12;;;;;;;5.20;2.30;;;26.30;56.40;;;;;;4956610;28;20223;-51
2023/02/01 11:30:46;;;;;;;3.53;2.20;;;26.30;56.40;;;;;;4956243;28;20206;-52
2023/02/01 11:33:21;;;;;;;3.88;2.05;;;26.20;56.40;;;;;;4956552;28;20222;-52
2023/02/01 11:35:52;;;;;;;4.82;2.53;;;26.30;56.60;;;;;;4956117;28;20210;-55
2023/02/01 11:38:28;;;;;;;4.70;2.30;;;26.30;56.60;;;;;;4964828;28;20230;-53
2023/02/01 11:41:13;;;;;;;5.22;2.63;;;26.20;56.60;;;;;;4974499;28;20201;-54
2023/02/01 11:43:56;;;;;;;3.17;2.17;;;26.20;56.50;;;;;;4975371;28;20205;-53
2023/02/01 11:46:30;;;;;;;4.25;2.25;;;26.20;56.50;;;;;;4974747;28;20198;-53
2023/02/01 11:49:23;;;;;;;3.95;2.10;;;26.20;56.50;;;;;;4975125;28;20624;-51
2023/02/01 11:52:10;;;;;;;4.45;2.25;;;26.20;56.50;;;;;;4974322;28;20194;-52
2023/02/01 11:54:59;;;;;;;3.80;2.30;;;26.20;56.50;;;;;;4975061;28;20202;-52
2023/02/01 11:57:47;;;;;;;3.03;1.80;;;26.20;56.40;;;;;;4975147;28;20201;-52
2023/02/01 12:00:39;;;;;;;4.15;2.20;;;26.20;56.50;;;;;;4975388;28;20226;-51
2023/02/01 12:03:38;;;;;;;3.63;2.20;;;26.20;56.40;;;;;;4974815;28;20198;-54
2023/02/01 12:06:20;;;;;;;3.50;2.00;;;26.10;56.30;;;;;;4974323;28;20654;-54
2023/02/01 12:09:15;;;;;;;3.97;1.90;;;26.10;56.30;;;;;;4972622;28;20233;-55
2023/02/01 12:11:56;;;;;;;3.47;2.33;;;26.10;56.30;;;;;;4974811;28;20297;-54
2023/02/01 12:14:46;;;;;;;2.55;1.90;;;26.10;56.30;;;;;;4974741;28;20790;-52
2023/02/01 12:17:38;;;;;;;3.58;2.10;;;26.00;56.40;;;;;;4975133;28;20202;-51
2023/02/01 12:20:37;;;;;;;1.88;1.55;;;26.00;56.40;;;;;;4974420;28;20249;-52
2023/02/01 12:23:25;;;;;;;2.83;2.15;;;26.00;56.40;;;;;;4974453;28;20565;-51
2023/02/01 12:26:13;;;;;;;3.03;1.95;;;26.00;56.40;;;;;;4974880;28;20198;-55
2023/02/01 12:29:04;;;;;;;3.38;2.00;;;26.00;56.50;;;;;;4974800;28;20221;-56
2023/02/01 12:31:58;;;;;;;3.08;2.35;;;26.00;56.50;;;;;;4973517;28;20198;-55
2023/02/01 12:34:48;;;;;;;2.80;1.98;;;26.00;56.50;;;;;;4974157;28;20194;-54
2023/02/01 12:37:28;;;;;;;2.10;1.67;;;26.00;56.40;;;;;;4974829;28;20198;-55
2023/02/01 12:40:08;;;;;;;5.05;2.10;;;26.00;56.40;;;;;;4973975;28;20233;-53
2023/02/01 12:42:43;;;;;;;3.20;1.90;;;26.00;56.40;;;;;;4974134;28;20205;-51
2023/02/01 12:45:18;;;;;;;2.70;1.75;;;25.90;56.30;;;;;;4974196;28;20677;-52
2023/02/01 12:47:52;;;;;;;2.60;1.70;;;25.90;56.30;;;;;;4974571;28;20222;-53
2023/02/01 12:50:31;;;;;;;3.15;2.03;;;25.90;56.30;;;;;;4974337;28;20198;-56
2023/02/01 12:53:12;;;;;;;3.35;2.00;;;25.90;56.30;;;;;;4974417;28;20220;-55
2023/02/01 12:55:49;;;;;;;3.08;2.00;;;25.80;56.30;;;;;;4974018;28;20545;-54
2023/02/01 12:58:26;;;;;;;2.28;1.77;;;25.90;56.40;;;;;;4973696;28;20221;-54
2023/02/01 13:01:00;;;;;;;3.45;2.00;;;25.80;56.40;;;;;;4974250;28;20226;-54
2023/02/01 13:03:39;;;;;;;2.55;1.90;;;25.80;56.30;;;;;;4973614;28;20205;-53
2023/02/01 13:06:15;;;;;;;2.83;1.80;;;25.80;56.40;;;;;;4973383;28;20285;-54
2023/02/01 13:08:50;;;;;;;2.58;1.75;;;25.80;56.40;;;;;;4973361;28;20261;-55
2023/02/01 13:11:28;;;;;;;2.83;1.73;;;25.80;56.40;;;;;;4973246;28;20201;-54
2023/02/01 13:14:05;;;;;;;2.25;1.45;;;25.80;56.40;;;;;;4973662;28;20546;-54
2023/02/01 13:16:39;;;;;;;2.97;1.85;;;25.80;56.40;;;;;;4973598;28;20217;-54
2023/02/01 13:19:18;;;;;;;2.60;1.80;;;25.80;56.30;;;;;;4973657;28;20230;-54
2023/02/01 13:21:52;;;;;;;2.78;1.80;;;25.80;56.40;;;;;;4973689;28;20202;-54
2023/02/01 13:24:35;;;;;;;3.35;1.88;;;25.80;56.40;;;;;;4973530;28;20209;-55
2023/02/01 13:27:07;;;;;;;3.13;2.00;;;25.70;56.30;;;;;;4973687;28;20561;-53
2023/02/01 13:29:49;;;;;;;2.47;1.85;;;25.70;56.30;;;;;;4973083;28;20226;-53
2023/02/01 13:32:57;;;;;;;2.85;1.90;;;25.70;56.30;;;;;;4973562;28;20202;-50
2023/02/01 13:35:58;;;;;;;2.47;1.70;;;25.70;56.30;;;;;;4967383;28;20206;-50
2023/02/01 13:38:59;;;;;;;1.90;1.60;;;25.60;56.30;;;;;;4971068;28;20671;-50
2023/02/01 13:41:33;;;;;;;2.13;1.88;;;25.70;56.40;;;;;;4973181;28;20210;-49
2023/02/01 13:44:12;;;;;;;2.28;1.88;;;25.70;56.40;;;;;;4973036;28;20207;-51
2023/02/01 13:46:45;;;;;;;2.28;1.60;;;25.60;56.40;;;;;;4973109;28;20542;-50
2023/02/01 13:49:24;;;;;;;2.67;1.83;;;25.60;56.40;;;;;;4972933;28;20245;-54
2023/02/01 13:51:56;;;;;;;2.38;1.50;;;25.60;56.40;;;;;;4971842;28;20201;-51
2023/02/01 13:54:33;;;;;;;2.50;1.58;;;25.60;56.40;;;;;;4972658;28;20209;-52
2023/02/01 13:57:05;;;;;;;2.40;1.70;;;25.60;56.30;;;;;;4973192;28;20202;-49